sensor_id;sensor_type;location;lat;lon;timestamp;P1;durP1;ratioP1;P2;durP2;ratioP2
24301;SDS011;12421;49.732;20.078;2023-12-04T00:07:00;55.30;;;23.40;;
24301;SDS011;12421;49.732;20.078;2023-12-04T00:17:04;86.30;;;34.30;;
24301;SDS011;12421;49.732;20.078;2023-12-04T00:27:07;70.30;;;28.20;;
24301;SDS011;12421;49.732;20.078;2023-12-04T00:37:11;68.30;;;27.90;;
24301;SDS011;12421;49.732;20.078;2023-12-04T00:47:14;75.40;;;30.70;;
24301;SDS011;12421;49.732;20.078;2023-12-04T00:57:18;39.70;;;18.80;;
24301;SDS011;12421;49.732;20.078;2023-12-04T01:07:23;44.40;;;19.80;;
24301;SDS011;12421;49.732;20.078;2023-12-04T01:17:27;36.80;;;17.30;;
24301;SDS011;12421;49.732;20.078;2023-12-04T01:27:30;38.30;;;18.10;;
24301;SDS011;12421;49.732;20.078;2023-12-04T01:37:34;38.40;;;17.90;;
24301;SDS011;12421;49.732;20.078;2023-12-04T01:47:37;35.70;;;16.50;;
24301;SDS011;12421;49.732;20.078;2023-12-04T01:57:41;30.20;;;14.60;;
24301;SDS011;12421;49.732;20.078;2023-12-04T02:07:45;40.10;;;19.20;;
24301;SDS011;12421;49.732;20.078;2023-12-04T02:17:49;36.30;;;16.50;;
24301;SDS011;12421;49.732;20.078;2023-12-04T02:27:53;38.40;;;16.40;;
24301;SDS011;12421;49.732;20.078;2023-12-04T02:37:59;43.00;;;19.80;;
24301;SDS011;12421;49.732;20.078;2023-12-04T02:48:04;32.40;;;17.80;;
24301;SDS011;12421;49.732;20.078;2023-12-04T02:58:07;37.00;;;16.40;;
24301;SDS011;12421;49.732;20.078;2023-12-04T03:08:10;31.80;;;15.70;;
24301;SDS011;12421;49.732;20.078;2023-12-04T03:18:14;27.70;;;13.40;;
24301;SDS011;12421;49.732;20.078;2023-12-04T03:28:18;28.60;;;13.70;;
24301;SDS011;12421;49.732;20.078;2023-12-04T03:38:22;28.30;;;14.10;;
24301;SDS011;12421;49.732;20.078;2023-12-04T03:48:25;22.10;;;11.80;;
24301;SDS011;12421;49.732;20.078;2023-12-04T03:58:29;21.90;;;11.40;;
24301;SDS011;12421;49.732;20.078;2023-12-04T04:08:32;24.30;;;11.70;;
24301;SDS011;12421;49.732;20.078;2023-12-04T04:18:37;23.80;;;10.20;;
24301;SDS011;12421;49.732;20.078;2023-12-04T04:28:40;21.00;;;9.90;;
24301;SDS011;12421;49.732;20.078;2023-12-04T04:38:43;23.30;;;10.10;;
24301;SDS011;12421;49.732;20.078;2023-12-04T04:48:47;18.90;;;9.50;;
24301;SDS011;12421;49.732;20.078;2023-12-04T04:58:50;17.50;;;8.70;;
24301;SDS011;12421;49.732;20.078;2023-12-04T05:18:59;24.90;;;13.10;;
24301;SDS011;12421;49.732;20.078;2023-12-04T05:29:02;29.80;;;14.30;;
24301;SDS011;12421;49.732;20.078;2023-12-04T05:39:06;28.50;;;11.00;;
24301;SDS011;12421;49.732;20.078;2023-12-04T05:49:10;17.80;;;9.10;;
24301;SDS011;12421;49.732;20.078;2023-12-04T05:59:13;16.00;;;7.60;;
24301;SDS011;12421;49.732;20.078;2023-12-04T06:09:16;17.40;;;8.20;;
24301;SDS011;12421;49.732;20.078;2023-12-04T06:19:20;19.40;;;9.90;;
24301;SDS011;12421;49.732;20.078;2023-12-04T06:29:23;24.80;;;12.60;;
24301;SDS011;12421;49.732;20.078;2023-12-04T06:39:28;31.90;;;10.90;;
24301;SDS011;12421;49.732;20.078;2023-12-04T06:49:35;30.80;;;12.40;;
24301;SDS011;12421;49.732;20.078;2023-12-04T06:59:39;46.40;;;19.20;;
24301;SDS011;12421;49.732;20.078;2023-12-04T07:09:42;39.20;;;14.90;;
24301;SDS011;12421;49.732;20.078;2023-12-04T07:19:46;26.50;;;11.40;;
24301;SDS011;12421;49.732;20.078;2023-12-04T07:29:50;32.10;;;13.80;;
24301;SDS011;12421;49.732;20.078;2023-12-04T07:39:53;36.90;;;14.80;;
24301;SDS011;12421;49.732;20.078;2023-12-04T07:49:57;41.60;;;16.20;;
24301;SDS011;12421;49.732;20.078;2023-12-04T08:00:01;24.40;;;13.10;;
24301;SDS011;12421;49.732;20.078;2023-12-04T08:10:06;27.20;;;13.30;;
24301;SDS011;12421;49.732;20.078;2023-12-04T08:20:10;32.60;;;16.00;;
24301;SDS011;12421;49.732;20.078;2023-12-04T08:30:26;60.10;;;30.30;;
24301;SDS011;12421;49.732;20.078;2023-12-04T08:40:30;36.10;;;18.50;;
24301;SDS011;12421;49.732;20.078;2023-12-04T08:50:34;399.90;;;128.70;;
24301;SDS011;12421;49.732;20.078;2023-12-04T09:00:37;189.00;;;64.50;;
24301;SDS011;12421;49.732;20.078;2023-12-04T09:10:46;69.80;;;33.60;;
24301;SDS011;12421;49.732;20.078;2023-12-04T09:21:10;105.10;;;49.40;;
24301;SDS011;12421;49.732;20.078;2023-12-04T09:31:14;62.50;;;31.70;;
24301;SDS011;12421;49.732;20.078;2023-12-04T09:41:18;58.00;;;30.00;;
24301;SDS011;12421;49.732;20.078;2023-12-04T09:51:22;46.70;;;25.00;;
24301;SDS011;12421;49.732;20.078;2023-12-04T10:01:29;197.50;;;95.30;;
24301;SDS011;12421;49.732;20.078;2023-12-04T10:11:42;88.70;;;45.80;;
24301;SDS011;12421;49.732;20.078;2023-12-04T10:21:46;133.50;;;63.10;;
24301;SDS011;12421;49.732;20.078;2023-12-04T10:31:51;41.10;;;20.10;;
24301;SDS011;12421;49.732;20.078;2023-12-04T10:41:58;45.40;;;21.40;;
24301;SDS011;12421;49.732;20.078;2023-12-04T10:52:06;36.90;;;19.40;;
24301;SDS011;12421;49.732;20.078;2023-12-04T11:02:13;47.60;;;23.80;;
24301;SDS011;12421;49.732;20.078;2023-12-04T11:12:25;31.70;;;17.40;;
24301;SDS011;12421;49.732;20.078;2023-12-04T11:22:32;30.20;;;16.50;;
24301;SDS011;12421;49.732;20.078;2023-12-04T11:33:12;29.50;;;17.20;;
24301;SDS011;12421;49.732;20.078;2023-12-04T11:43:27;24.90;;;13.20;;
24301;SDS011;12421;49.732;20.078;2023-12-04T11:53:32;25.20;;;14.50;;
24301;SDS011;12421;49.732;20.078;2023-12-04T12:03:40;16.60;;;11.50;;
24301;SDS011;12421;49.732;20.078;2023-12-04T12:13:44;9.70;;;6.40;;
24301;SDS011;12421;49.732;20.078;2023-12-04T12:23:47;8.40;;;5.20;;
24301;SDS011;12421;49.732;20.078;2023-12-04T12:33:51;5.70;;;4.00;;
24301;SDS011;12421;49.732;20.078;2023-12-04T12:43:56;8.40;;;5.40;;
24301;SDS011;12421;49.732;20.078;2023-12-04T12:54:00;38.40;;;20.10;;
24301;SDS011;12421;49.732;20.078;2023-12-04T13:04:03;10.30;;;6.60;;
24301;SDS011;12421;49.732;20.078;2023-12-04T13:14:10;10.50;;;6.30;;
24301;SDS011;12421;49.732;20.078;2023-12-04T13:24:13;18.20;;;10.90;;
24301;SDS011;12421;49.732;20.078;2023-12-04T13:34:16;11.50;;;7.10;;
24301;SDS011;12421;49.732;20.078;2023-12-04T13:44:20;20.30;;;11.40;;
24301;SDS011;12421;49.732;20.078;2023-12-04T13:54:23;16.90;;;9.80;;
24301;SDS011;12421;49.732;20.078;2023-12-04T14:04:44;40.40;;;19.80;;
24301;SDS011;12421;49.732;20.078;2023-12-04T14:14:48;22.20;;;13.00;;
24301;SDS011;12421;49.732;20.078;2023-12-04T14:24:51;21.30;;;11.60;;
24301;SDS011;12421;49.732;20.078;2023-12-04T14:34:54;29.30;;;15.40;;
24301;SDS011;12421;49.732;20.078;2023-12-04T14:44:58;37.00;;;20.70;;
24301;SDS011;12421;49.732;20.078;2023-12-04T14:55:01;64.00;;;30.00;;
24301;SDS011;12421;49.732;20.078;2023-12-04T15:05:23;52.20;;;25.80;;
24301;SDS011;12421;49.732;20.078;2023-12-04T15:15:42;55.70;;;28.80;;
24301;SDS011;12421;49.732;20.078;2023-12-04T15:26:03;98.50;;;46.90;;
24301;SDS011;12421;49.732;20.078;2023-12-04T15:36:09;49.80;;;25.10;;
24301;SDS011;12421;49.732;20.078;2023-12-04T15:46:15;53.40;;;27.50;;
24301;SDS011;12421;49.732;20.078;2023-12-04T15:56:21;94.80;;;41.30;;
24301;SDS011;12421;49.732;20.078;2023-12-04T16:06:24;65.40;;;30.40;;
24301;SDS011;12421;49.732;20.078;2023-12-04T16:16:28;85.00;;;37.60;;
24301;SDS011;12421;49.732;20.078;2023-12-04T16:26:31;107.20;;;48.20;;
24301;SDS011;12421;49.732;20.078;2023-12-04T16:36:35;71.10;;;34.50;;
24301;SDS011;12421;49.732;20.078;2023-12-04T16:46:38;117.60;;;52.80;;
24301;SDS011;12421;49.732;20.078;2023-12-04T16:56:42;134.20;;;59.40;;
24301;SDS011;12421;49.732;20.078;2023-12-04T17:06:45;147.80;;;65.90;;
24301;SDS011;12421;49.732;20.078;2023-12-04T17:16:48;210.70;;;91.30;;
24301;SDS011;12421;49.732;20.078;2023-12-04T17:26:51;179.10;;;77.50;;
24301;SDS011;12421;49.732;20.078;2023-12-04T17:36:56;177.20;;;77.90;;
24301;SDS011;12421;49.732;20.078;2023-12-04T17:46:59;240.50;;;98.90;;
24301;SDS011;12421;49.732;20.078;2023-12-04T17:57:04;272.80;;;113.60;;
24301;SDS011;12421;49.732;20.078;2023-12-04T18:07:08;213.70;;;95.60;;
24301;SDS011;12421;49.732;20.078;2023-12-04T18:17:11;198.70;;;88.80;;
24301;SDS011;12421;49.732;20.078;2023-12-04T18:27:15;185.20;;;77.50;;
24301;SDS011;12421;49.732;20.078;2023-12-04T18:37:20;170.30;;;80.50;;
24301;SDS011;12421;49.732;20.078;2023-12-04T18:47:28;156.40;;;67.90;;
24301;SDS011;12421;49.732;20.078;2023-12-04T18:57:32;177.10;;;80.90;;
24301;SDS011;12421;49.732;20.078;2023-12-04T19:07:36;175.00;;;76.40;;
24301;SDS011;12421;49.732;20.078;2023-12-04T19:17:40;252.40;;;110.30;;
24301;SDS011;12421;49.732;20.078;2023-12-04T19:27:44;179.10;;;78.70;;
24301;SDS011;12421;49.732;20.078;2023-12-04T19:37:47;185.90;;;81.20;;
24301;SDS011;12421;49.732;20.078;2023-12-04T19:47:51;192.70;;;86.30;;
24301;SDS011;12421;49.732;20.078;2023-12-04T19:57:54;208.80;;;90.40;;
24301;SDS011;12421;49.732;20.078;2023-12-04T20:07:58;197.40;;;87.30;;
24301;SDS011;12421;49.732;20.078;2023-12-04T20:18:02;214.10;;;92.40;;
24301;SDS011;12421;49.732;20.078;2023-12-04T20:28:07;225.10;;;97.00;;
24301;SDS011;12421;49.732;20.078;2023-12-04T20:38:11;282.80;;;112.80;;
24301;SDS011;12421;49.732;20.078;2023-12-04T20:48:16;200.40;;;81.40;;
24301;SDS011;12421;49.732;20.078;2023-12-04T20:58:20;179.90;;;79.10;;
24301;SDS011;12421;49.732;20.078;2023-12-04T21:08:23;202.50;;;87.60;;
24301;SDS011;12421;49.732;20.078;2023-12-04T21:18:26;177.60;;;77.50;;
24301;SDS011;12421;49.732;20.078;2023-12-04T21:28:33;201.90;;;84.20;;
24301;SDS011;12421;49.732;20.078;2023-12-04T21:38:36;211.20;;;89.50;;
24301;SDS011;12421;49.732;20.078;2023-12-04T21:48:39;165.30;;;67.80;;
24301;SDS011;12421;49.732;20.078;2023-12-04T21:58:43;163.80;;;71.90;;
24301;SDS011;12421;49.732;20.078;2023-12-04T22:08:46;193.90;;;83.80;;
24301;SDS011;12421;49.732;20.078;2023-12-04T22:18:50;144.60;;;61.90;;
24301;SDS011;12421;49.732;20.078;2023-12-04T22:28:53;148.70;;;62.90;;
24301;SDS011;12421;49.732;20.078;2023-12-04T22:38:58;162.10;;;68.90;;
24301;SDS011;12421;49.732;20.078;2023-12-04T22:49:01;145.80;;;61.70;;
24301;SDS011;12421;49.732;20.078;2023-12-04T22:59:05;125.90;;;49.20;;
24301;SDS011;12421;49.732;20.078;2023-12-04T23:09:09;141.50;;;64.90;;
24301;SDS011;12421;49.732;20.078;2023-12-04T23:19:12;137.10;;;62.00;;
24301;SDS011;12421;49.732;20.078;2023-12-04T23:29:16;132.80;;;58.80;;
24301;SDS011;12421;49.732;20.078;2023-12-04T23:39:20;128.30;;;59.50;;
24301;SDS011;12421;49.732;20.078;2023-12-04T23:49:24;132.70;;;57.70;;
24301;SDS011;12421;49.732;20.078;2023-12-04T23:59:28;110.50;;;55.30;;
